createdAt,value
2023-04-09T00:05:04.024Z,24.15
2023-04-09T00:10:25.601Z,23.92
2023-04-09T00:22:02.051Z,28.55
2023-04-09T00:27:23.765Z,26.08
2023-04-09T00:32:54.588Z,23.63
2023-04-09T00:38:17.213Z,25.05
2023-04-09T00:43:38.791Z,24.30
2023-04-09T00:49:45.400Z,26.23
2023-04-09T01:01:23.171Z,25.55
2023-04-09T01:07:11.763Z,28.13
2023-04-09T01:12:48.586Z,27.00
2023-04-09T01:18:23.481Z,27.02
2023-04-09T01:23:52.679Z,28.63
2023-04-09T01:29:16.043Z,27.45
2023-04-09T01:34:39.067Z,22.52
2023-04-09T01:40:01.674Z,26.95
2023-04-09T01:45:23.683Z,24.73
2023-04-09T01:50:45.993Z,23.13
2023-04-09T01:56:08.604Z,26.15
2023-04-09T02:01:34.110Z,25.08
2023-04-09T02:07:04.304Z,24.80
2023-04-09T02:12:26.181Z,23.08
2023-04-09T02:17:48.697Z,22.80
2023-04-09T02:23:10.514Z,26.17
2023-04-09T02:28:32.341Z,25.98
2023-04-09T02:33:54.390Z,24.35
2023-04-09T02:39:16.573Z,25.60
2023-04-09T02:44:38.056Z,24.95
2023-04-09T02:50:00.355Z,23.77
2023-04-09T02:55:25.459Z,27.95
2023-04-09T03:00:47.177Z,25.67
2023-04-09T03:06:09.011Z,24.38
2023-04-09T03:11:30.651Z,23.77
2023-04-09T03:16:52.241Z,24.48
2023-04-09T03:22:14.189Z,23.55
2023-04-09T03:27:36.526Z,24.23
2023-04-09T03:58:12.671Z,22.27
2023-04-09T04:03:34.556Z,22.83
2023-04-09T04:09:17.863Z,24.83
2023-04-09T04:14:59.472Z,24.65
2023-04-09T04:33:04.359Z,22.35
2023-04-09T04:38:34.882Z,22.48
2023-04-09T04:44:00.370Z,23.65
2023-04-09T04:49:21.928Z,23.85
2023-04-09T04:54:46.512Z,25.38
2023-04-09T05:00:14.174Z,24.48
2023-04-09T05:05:36.518Z,23.17
2023-04-09T05:11:30.351Z,24.27
2023-04-09T05:16:52.470Z,25.48
2023-04-09T05:22:18.624Z,24.83
2023-04-09T05:27:41.225Z,25.20
2023-04-09T05:33:03.083Z,24.95
2023-04-09T05:38:26.220Z,25.77
2023-04-09T05:43:51.846Z,27.92
2023-04-09T05:49:14.420Z,25.73
2023-04-09T05:54:38.412Z,29.13
2023-04-09T06:00:03.689Z,26.60
2023-04-09T06:10:59.652Z,25.33
2023-04-09T06:16:21.318Z,24.50
2023-04-09T06:21:42.817Z,27.00
2023-04-09T06:27:04.644Z,23.77
2023-04-09T06:32:27.273Z,25.73
2023-04-09T06:44:05.585Z,25.23
2023-04-09T06:50:05.940Z,25.48
2023-04-09T06:55:28.615Z,25.50
2023-04-09T07:01:32.786Z,24.90
2023-04-09T07:07:23.259Z,25.85
2023-04-09T07:12:53.348Z,25.55
2023-04-09T07:18:59.834Z,23.75
2023-04-09T07:24:32.847Z,25.73
2023-04-09T07:29:58.530Z,25.40
2023-04-09T07:36:23.094Z,24.80
2023-04-09T07:41:51.303Z,23.80
2023-04-09T07:47:49.311Z,22.77
2023-04-09T07:53:19.079Z,23.52
2023-04-09T07:58:40.002Z,24.95
2023-04-09T08:04:01.483Z,24.92
2023-04-09T08:09:22.835Z,26.60
2023-04-09T08:14:44.621Z,26.15
2023-04-09T08:20:06.337Z,25.70
2023-04-09T08:25:27.564Z,24.75
2023-04-09T08:30:48.568Z,24.65
2023-04-09T08:36:09.505Z,17.95
2023-04-09T08:41:30.589Z,18.02
2023-04-09T08:46:51.366Z,17.23
2023-04-09T08:52:12.063Z,17.05
2023-04-09T08:57:40.304Z,17.55
2023-04-09T09:03:08.533Z,17.63
2023-04-09T09:08:30.726Z,17.83
2023-04-09T09:13:58.119Z,17.60
2023-04-09T09:19:24.769Z,17.58
2023-04-09T09:24:50.322Z,17.27
2023-04-09T09:30:21.673Z,15.57
2023-04-09T09:35:50.171Z,15.60
2023-04-09T09:41:17.078Z,15.25
2023-04-09T09:46:39.374Z,15.35
2023-04-09T09:52:00.578Z,15.73
2023-04-09T09:57:23.699Z,13.38
2023-04-09T10:02:48.387Z,13.43
2023-04-09T10:08:09.700Z,13.55
2023-04-09T10:13:56.598Z,14.40
2023-04-09T10:19:17.340Z,14.02
2023-04-09T10:24:38.207Z,15.90
2023-04-09T10:35:25.794Z,15.95
2023-04-09T10:40:50.936Z,15.73
2023-04-09T10:46:31.328Z,15.82
2023-04-09T10:51:52.910Z,13.63
2023-04-09T11:02:38.133Z,14.50
2023-04-09T11:08:03.340Z,15.98
2023-04-09T11:13:24.280Z,16.30
2023-04-09T11:18:45.520Z,16.17
2023-04-09T11:24:06.292Z,15.60
2023-04-09T11:29:27.240Z,16.90
2023-04-09T11:34:47.870Z,20.23
2023-04-09T11:40:32.252Z,18.90
2023-04-09T11:45:53.385Z,18.00
2023-04-09T11:51:14.048Z,17.13
2023-04-09T11:56:36.277Z,20.00
2023-04-09T12:02:00.658Z,22.00
2023-04-09T12:07:22.535Z,20.08
2023-04-09T12:12:44.234Z,18.20
2023-04-09T12:18:08.323Z,19.38
2023-04-09T12:23:31.457Z,16.77
2023-04-09T12:28:52.730Z,19.27
2023-04-09T12:34:13.633Z,19.13
2023-04-09T12:39:34.540Z,16.98
2023-04-09T12:44:55.159Z,18.85
2023-04-09T12:50:16.313Z,18.33
2023-04-09T12:55:37.382Z,18.45
2023-04-09T13:00:58.736Z,21.10
2023-04-09T13:06:19.604Z,19.05
2023-04-09T13:11:40.813Z,21.23
2023-04-09T13:17:01.887Z,19.65
2023-04-09T13:22:22.664Z,21.60
2023-04-09T13:27:43.472Z,23.70
2023-04-09T13:33:04.310Z,21.27
2023-04-09T13:38:24.970Z,20.10
2023-04-09T13:43:45.943Z,21.13
2023-04-09T13:49:06.895Z,20.83
2023-04-09T13:54:27.714Z,19.77
2023-04-09T13:59:48.599Z,22.63
2023-04-09T14:05:09.605Z,21.30
2023-04-09T14:10:30.819Z,23.17
2023-04-09T14:15:51.736Z,20.83
2023-04-09T14:21:12.394Z,21.85
2023-04-09T14:26:33.177Z,22.40
2023-04-09T14:31:55.991Z,19.83
2023-04-09T14:37:18.228Z,19.65
2023-04-09T14:42:40.782Z,21.67
2023-04-09T14:48:01.521Z,23.02
2023-04-09T14:53:22.199Z,19.77
2023-04-09T14:58:42.735Z,20.92
2023-04-09T15:04:04.738Z,22.08
2023-04-09T15:09:25.450Z,22.60
2023-04-09T15:14:46.417Z,19.13
2023-04-09T15:20:07.907Z,20.98
2023-04-09T15:25:28.625Z,19.75
2023-04-09T15:30:49.426Z,18.75
2023-04-09T15:36:10.586Z,13.63
2023-04-09T15:41:32.372Z,15.35
2023-04-09T15:46:53.158Z,17.38
2023-04-09T15:52:13.925Z,17.13
2023-04-09T15:57:34.699Z,17.10
2023-04-09T16:02:55.356Z,15.68
2023-04-09T16:08:16.117Z,16.98
2023-04-09T16:13:37.294Z,15.27
2023-04-09T16:18:58.220Z,12.98
2023-04-09T16:24:19.975Z,14.63
2023-04-09T16:29:41.019Z,17.20
2023-04-09T16:35:02.557Z,16.05
2023-04-09T16:40:24.508Z,13.40
2023-04-09T16:45:45.392Z,20.25
2023-04-09T16:51:06.298Z,15.85
2023-04-09T16:56:27.514Z,17.70
2023-04-09T17:01:49.233Z,14.80
2023-04-09T17:07:10.173Z,15.15
2023-04-09T17:12:31.342Z,16.23
2023-04-09T17:17:53.646Z,16.02
2023-04-09T17:23:14.783Z,18.05
2023-04-09T17:28:36.173Z,18.38
2023-04-09T17:33:56.772Z,17.67
2023-04-09T17:39:18.078Z,20.15
2023-04-09T17:44:46.830Z,17.63
2023-04-09T17:50:35.662Z,20.17
2023-04-09T17:56:16.649Z,19.33
2023-04-09T18:02:42.523Z,17.73
2023-04-09T18:09:27.985Z,14.32
2023-04-09T18:14:32.488Z,14.75
2023-04-09T18:19:54.548Z,13.45
2023-04-09T18:25:15.823Z,12.98
2023-04-09T18:30:38.826Z,13.35
2023-04-09T18:36:01.341Z,13.40
2023-04-09T18:41:26.105Z,11.55
2023-04-09T18:46:47.472Z,10.75
2023-04-09T18:52:10.273Z,10.60
2023-04-09T18:57:33.294Z,13.43
2023-04-09T19:02:54.635Z,13.88
2023-04-09T19:08:16.543Z,13.52
2023-04-09T19:13:37.692Z,13.18
2023-04-09T19:18:58.759Z,12.93
2023-04-09T19:24:19.486Z,12.52
2023-04-09T19:29:40.726Z,12.75
2023-04-09T19:35:04.031Z,15.07
2023-04-09T19:40:25.725Z,13.73
2023-04-09T19:45:46.994Z,16.30
2023-04-09T19:51:08.314Z,14.68
2023-04-09T19:56:29.210Z,16.35
2023-04-09T20:01:50.951Z,13.00
2023-04-09T20:07:12.000Z,14.95
2023-04-09T20:12:32.759Z,17.10
2023-04-09T20:17:53.677Z,12.45
2023-04-09T20:23:16.756Z,12.43
2023-04-09T20:28:41.377Z,11.13
2023-04-09T20:34:30.757Z,12.23
2023-04-09T20:39:51.562Z,11.38
2023-04-09T20:45:12.572Z,9.52
2023-04-09T20:50:33.852Z,9.38
2023-04-09T20:55:54.949Z,10.57
2023-04-09T21:01:17.496Z,10.00
2023-04-09T21:07:06.856Z,15.65
2023-04-09T21:12:29.811Z,16.27
2023-04-09T21:17:50.864Z,26.05
2023-04-09T21:23:12.701Z,20.45
2023-04-09T21:28:33.586Z,26.05
2023-04-09T21:33:54.790Z,17.15
2023-04-09T21:39:15.580Z,13.48
2023-04-09T21:44:36.628Z,12.32
2023-04-09T21:50:26.409Z,15.00
2023-04-09T21:55:47.212Z,13.60
2023-04-09T22:01:13.111Z,12.45
2023-04-09T22:06:45.783Z,13.38
2023-04-09T22:12:07.268Z,13.83
2023-04-09T22:17:28.095Z,11.32
2023-04-09T22:22:49.175Z,13.52
2023-04-09T22:28:10.029Z,13.82
2023-04-09T22:33:31.222Z,13.38
2023-04-09T22:38:53.062Z,14.55
2023-04-09T22:44:14.173Z,16.35
2023-04-09T22:49:35.216Z,17.20
2023-04-09T22:54:56.542Z,17.25
2023-04-09T23:00:17.429Z,15.32
2023-04-09T23:05:38.338Z,14.43
2023-04-09T23:10:59.339Z,16.27
2023-04-09T23:16:19.985Z,15.32
2023-04-09T23:21:40.867Z,16.30
2023-04-09T23:27:02.399Z,15.93
2023-04-09T23:32:23.495Z,15.27
2023-04-09T23:37:44.378Z,16.38
2023-04-09T23:43:05.106Z,14.40
2023-04-09T23:48:25.898Z,14.52
2023-04-09T23:53:46.682Z,14.88
2023-04-09T23:59:07.693Z,18.33
